Time;durP1;ratioP1;P1;durP2;ratioP2;P2;SDS_P1;SDS_P2;PMS_P1;PMS_P2;Temp;Humidity;BMP_temperature;BMP_pressure;BME280_temperature;BME280_humidity;BME280_pressure;Samples;Min_cycle;Max_cycle;Signal;HPM_P1;HPM_P2
2023/10/07 00:02:33;;;;;;;3.92;2.40;;;;;;;23.20;54.87;100824.50;10366193;28;96836;-75
2023/10/07 00:07:37;;;;;;;3.53;2.40;;;;;;;23.15;55.08;100816.81;10384211;28;96876;-75
2023/10/07 00:12:43;;;;;;;3.20;2.78;;;;;;;23.10;55.42;100810.13;10379524;28;96940;-75
2023/10/07 00:17:47;;;;;;;4.18;3.10;;;;;;;22.88;56.27;100815.53;10389553;28;96723;-74
2023/10/07 00:22:54;;;;;;;4.53;2.70;;;;;;;22.61;57.46;100810.53;10386164;28;96834;-75
2023/10/07 00:27:59;;;;;;;7.10;3.10;;;;;;;22.49;58.15;100811.53;10384617;28;99342;-74
2023/10/07 00:33:03;;;;;;;7.03;2.88;;;;;;;22.53;57.75;100807.63;10380006;28;97018;-75
2023/10/07 00:38:14;;;;;;;4.63;2.97;;;;;;;22.34;58.18;100808.25;10388606;28;97164;-74
2023/10/07 00:43:30;;;;;;;4.75;2.92;;;;;;;22.21;59.49;100807.50;10371586;28;98791;-74
2023/10/07 00:48:52;;;;;;;3.90;2.80;;;;;;;22.10;59.34;100801.28;10389495;28;96799;-75
2023/10/07 00:54:01;;;;;;;3.83;2.55;;;;;;;21.99;59.50;100799.44;10386445;28;96915;-75
2023/10/07 00:59:07;;;;;;;3.28;2.42;;;;;;;21.85;60.99;100796.09;10399449;27;96808;-74
2023/10/07 01:04:13;;;;;;;4.10;2.70;;;;;;;21.89;60.33;100797.56;10391507;28;96880;-75
2023/10/07 01:09:22;;;;;;;3.78;2.90;;;;;;;21.72;61.25;100787.28;10377052;28;96997;-75
2023/10/07 01:14:28;;;;;;;4.38;2.85;;;;;;;21.52;63.37;100786.13;10365782;28;96909;-75
2023/10/07 01:19:43;;;;;;;5.00;2.97;;;;;;;21.36;63.31;100777.56;10370157;28;96837;-74
2023/10/07 01:24:49;;;;;;;6.10;2.72;;;;;;;21.21;64.46;100776.91;10365969;28;96713;-74
2023/10/07 01:29:59;;;;;;;4.18;2.58;;;;;;;21.25;64.18;100774.84;10360674;28;96933;-74
2023/10/07 01:35:10;;;;;;;4.65;2.95;;;;;;;21.35;62.99;100773.16;10383188;28;96779;-75
2023/10/07 01:40:17;;;;;;;6.03;3.05;;;;;;;21.45;62.46;100769.69;10352317;28;96882;-74
2023/10/07 01:45:25;;;;;;;6.30;2.67;;;;;;;21.40;62.21;100771.00;10350580;28;99195;-74
2023/10/07 01:50:32;;;;;;;3.80;2.75;;;;;;;21.38;62.46;100767.59;10353796;28;96773;-75
2023/10/07 01:55:42;;;;;;;4.00;3.05;;;;;;;21.83;59.63;100756.00;10359773;28;98863;-74
2023/10/07 02:00:51;;;;;;;3.78;2.60;;;;;;;21.75;60.50;100760.25;10363081;28;99283;-75
2023/10/07 02:05:56;;;;;;;3.72;2.55;;;;;;;21.63;60.67;100758.53;10349112;28;96886;-75
2023/10/07 02:11:05;;;;;;;3.40;2.60;;;;;;;21.57;60.57;100756.34;10359799;28;98357;-74
2023/10/07 02:16:09;;;;;;;3.83;2.75;;;;;;;21.69;60.20;100742.00;10350634;28;96759;-75
2023/10/07 02:21:12;;;;;;;4.70;2.50;;;;;;;21.76;59.75;100751.25;10349150;28;96890;-75
2023/10/07 02:26:19;;;;;;;5.47;2.80;;;;;;;21.71;59.53;100729.34;10344645;28;97216;-75
2023/10/07 02:31:27;;;;;;;3.42;2.70;;;;;;;21.86;58.34;100730.81;10346485;28;96900;-75
2023/10/07 02:36:31;;;;;;;3.42;2.80;;;;;;;21.90;58.32;100732.28;10349417;28;99058;-75
2023/10/07 02:41:36;;;;;;;4.25;2.38;;;;;;;21.84;58.62;100732.75;10364490;28;96834;-74
2023/10/07 02:46:40;;;;;;;4.47;2.40;;;;;;;21.77;58.62;100734.19;10344738;28;96942;-76
2023/10/07 02:51:47;;;;;;;3.03;2.25;;;;;;;21.81;58.19;100733.88;10345284;28;96819;-76
2023/10/07 02:57:06;;;;;;;4.57;2.80;;;;;;;21.69;58.52;100720.56;10342830;28;97596;-76
2023/10/07 03:02:37;;;;;;;4.00;2.42;;;;;;;21.62;58.86;100728.22;10356731;28;96842;-75
2023/10/07 03:07:42;;;;;;;5.30;2.90;;;;;;;21.56;59.04;100725.16;10365799;28;96960;-76
2023/10/07 03:12:49;;;;;;;4.88;2.85;;;;;;;21.55;58.74;100732.34;10355538;28;96859;-75
2023/10/07 03:17:53;;;;;;;5.32;2.70;;;;;;;21.67;58.04;100738.56;10364310;28;96877;-76
2023/10/07 03:23:14;;;;;;;3.92;2.58;;;;;;;21.68;57.75;100729.56;10358958;28;96890;-76
2023/10/07 03:28:20;;;;;;;4.85;2.65;;;;;;;21.56;58.68;100750.13;10372500;28;96807;-76
2023/10/07 03:33:32;;;;;;;6.18;2.72;;;;;;;21.72;57.41;100747.97;10376709;28;97270;-75
2023/10/07 03:38:36;;;;;;;3.80;2.60;;;;;;;21.86;56.63;100742.38;10384659;28;96903;-75
2023/10/07 03:43:41;;;;;;;4.03;2.40;;;;;;;21.96;56.29;100739.81;10402154;28;97019;-75
2023/10/07 03:48:53;;;;;;;4.40;2.58;;;;;;;21.97;56.41;100731.66;10391300;28;96801;-75
2023/10/07 03:54:01;;;;;;;3.13;2.40;;;;;;;21.96;55.98;100734.47;10341049;28;96967;-75
2023/10/07 03:59:06;;;;;;;3.08;2.55;;;;;;;21.97;56.12;100730.84;10333445;28;96947;-75
2023/10/07 04:04:11;;;;;;;3.88;2.20;;;;;;;21.96;55.79;100735.31;10336737;28;99294;-75
2023/10/07 04:09:17;;;;;;;3.75;2.47;;;;;;;21.95;55.95;100736.28;10351125;28;97060;-75
2023/10/07 04:14:27;;;;;;;4.80;2.50;;;;;;;21.90;55.89;100733.13;10342080;28;97000;-74
2023/10/07 04:19:38;;;;;;;3.22;2.20;;;;;;;21.97;55.40;100738.88;10342005;28;96726;-74
2023/10/07 04:24:44;;;;;;;3.88;2.38;;;;;;;21.94;55.55;100739.94;10344797;28;96900;-75
2023/10/07 04:29:52;;;;;;;2.83;2.47;;;;;;;22.01;54.89;100745.72;10396723;28;96805;-75
2023/10/07 04:45:49;;;;;;;5.20;2.88;;;;;;;22.02;54.50;100756.31;10409477;28;96881;-74
2023/10/07 04:51:03;;;;;;;3.50;2.92;;;;;;;21.98;54.91;100754.84;10383686;28;97553;-75
2023/10/07 04:56:08;;;;;;;4.40;2.83;;;;;;;21.98;54.62;100752.19;10387945;28;96827;-75
2023/10/07 05:01:30;;;;;;;3.80;2.85;;;;;;;21.95;54.83;100760.41;10387216;28;97851;-75
2023/10/07 05:06:35;;;;;;;3.83;2.67;;;;;;;21.93;54.71;100764.19;10412381;28;96873;-75
2023/10/07 05:11:40;;;;;;;3.63;2.65;;;;;;;21.96;54.72;100763.94;10385400;28;96833;-75
2023/10/07 05:16:47;;;;;;;3.83;2.25;;;;;;;21.95;54.90;100771.13;10380049;28;96968;-75
2023/10/07 05:22:05;;;;;;;5.18;2.90;;;;;;;21.97;54.75;100774.53;10374921;28;97321;-75
2023/10/07 05:27:08;;;;;;;4.55;2.47;;;;;;;22.01;54.49;100776.06;10390746;28;96833;-75
2023/10/07 05:32:13;;;;;;;4.13;2.53;;;;;;;22.07;54.27;100793.50;10361982;28;96769;-73
2023/10/07 05:37:17;;;;;;;4.22;2.53;;;;;;;22.02;54.53;100795.69;10374883;28;97243;-73
2023/10/07 05:42:20;;;;;;;5.60;2.55;;;;;;;22.00;54.68;100811.03;10362664;28;99069;-72
2023/10/07 05:47:25;;;;;;;5.75;2.72;;;;;;;22.08;54.29;100812.13;10356031;28;96769;-72
2023/10/07 05:52:29;;;;;;;4.10;2.42;;;;;;;22.13;54.09;100811.75;10369568;28;97092;-72
2023/10/07 05:57:33;;;;;;;3.58;2.47;;;;;;;22.09;53.83;100816.50;10350975;28;96784;-72
2023/10/07 06:02:40;;;;;;;4.53;2.45;;;;;;;22.13;53.54;100819.78;10343296;28;96776;-72
2023/10/07 06:07:44;;;;;;;3.55;2.60;;;;;;;22.14;53.57;100825.03;10345802;28;96801;-72
2023/10/07 06:12:47;;;;;;;5.22;2.60;;;;;;;22.13;53.79;100827.84;10342481;28;96839;-73
2023/10/07 06:17:52;;;;;;;3.65;2.63;;;;;;;22.12;53.73;100821.66;10342841;28;96756;-73
2023/10/07 06:22:56;;;;;;;2.83;2.10;;;;;;;22.16;53.51;100819.56;10356240;28;96989;-72
2023/10/07 06:28:00;;;;;;;4.13;2.70;;;;;;;22.19;53.43;100833.59;10346044;28;96785;-72
2023/10/07 06:33:05;;;;;;;5.13;2.67;;;;;;;22.20;53.28;100831.75;10342153;28;97073;-72
2023/10/07 06:38:09;;;;;;;4.57;2.65;;;;;;;22.23;52.94;100850.31;10348165;28;96881;-73
2023/10/07 06:43:14;;;;;;;3.10;2.30;;;;;;;22.22;52.31;100841.41;10361895;28;96842;-72
2023/10/07 06:48:23;;;;;;;4.80;2.60;;;;;;;22.30;52.41;100851.50;10351892;28;97026;-72
2023/10/07 06:53:26;;;;;;;3.38;2.70;;;;;;;22.27;52.19;100857.97;10358359;28;97147;-72
2023/10/07 06:58:30;;;;;;;5.53;2.87;;;;;;;22.21;52.30;100863.78;10341266;28;96855;-73
2023/10/07 07:03:35;;;;;;;3.70;2.50;;;;;;;22.21;52.14;100871.84;10366965;28;99010;-73
2023/10/07 07:08:38;;;;;;;3.85;2.45;;;;;;;22.21;52.29;100877.19;10349417;28;96778;-72
2023/10/07 07:13:44;;;;;;;5.35;2.50;;;;;;;22.26;51.79;100885.75;10369078;28;97358;-72
2023/10/07 07:18:48;;;;;;;6.32;2.65;;;;;;;22.36;51.68;100886.75;10379517;28;98949;-73
2023/10/07 07:23:52;;;;;;;5.25;2.97;;;;;;;22.60;51.18;100898.25;10373357;28;96851;-72
2023/10/07 07:28:57;;;;;;;3.90;2.53;;;;;;;23.61;48.84;100892.63;10375214;28;96899;-73
2023/10/07 07:34:09;;;;;;;2.92;2.10;;;;;;;24.05;48.02;100901.50;10384597;28;98778;-74
2023/10/07 07:39:19;;;;;;;3.55;2.20;;;;;;;24.37;46.73;100903.16;10381067;28;97687;-74
2023/10/07 07:44:32;;;;;;;3.40;2.35;;;;;;;24.67;46.45;100908.53;10382228;28;96777;-74
2023/10/07 07:49:39;;;;;;;3.28;2.47;;;;;;;25.23;44.16;100908.94;10395733;28;96943;-74
2023/10/07 07:54:42;;;;;;;5.68;3.08;;;;;;;25.77;43.52;100917.44;10402871;28;96739;-74
2023/10/07 07:59:46;;;;;;;2.90;2.30;;;;;;;26.60;41.94;100920.34;10383915;28;96847;-75
2023/10/07 08:04:51;;;;;;;3.80;2.25;;;;;;;26.63;40.82;100917.34;10380818;28;96819;-74
2023/10/07 08:09:58;;;;;;;2.00;1.75;;;;;;;26.97;40.31;100926.56;10411129;28;97569;-75
2023/10/07 08:15:21;;;;;;;3.25;2.03;;;;;;;27.54;39.18;100927.31;10397332;28;98912;-75
2023/10/07 08:20:37;;;;;;;2.33;1.90;;;;;;;27.75;37.99;100936.00;10387080;28;96705;-75
2023/10/07 08:25:46;;;;;;;3.10;2.30;;;;;;;27.82;37.83;100929.00;10375693;28;96887;-78
2023/10/07 08:30:49;;;;;;;3.20;2.20;;;;;;;28.33;37.39;100937.22;10383681;28;96806;-77
2023/10/07 08:35:55;;;;;;;3.50;2.63;;;;;;;28.36;36.84;100931.50;10373935;28;97131;-77
2023/10/07 08:41:05;;;;;;;3.47;2.03;;;;;;;28.33;36.49;100926.41;10389806;22;97340;-77
2023/10/07 08:46:11;;;;;;;4.03;2.15;;;;;;;28.53;36.38;100929.78;10277482;28;96981;-77
2023/10/07 08:51:21;;;;;;;4.22;2.20;;;;;;;28.00;36.14;100922.56;10282701;28;98571;-77
2023/10/07 08:56:29;;;;;;;2.88;2.05;;;;;;;26.97;38.08;100931.16;10279413;28;96828;-77
2023/10/07 09:01:32;;;;;;;3.40;2.20;;;;;;;26.56;39.28;100940.50;10283910;28;97537;-78
2023/10/07 09:06:50;;;;;;;;;;;;;;;26.88;38.89;100935.59;10286104;28;97027;-78
2023/10/07 09:11:54;;;;;;;3.10;2.00;;;;;;;28.05;36.19;100933.75;10273516;28;98898;-78
2023/10/07 09:16:57;;;;;;;3.85;2.40;;;;;;;28.67;34.69;100931.91;10266106;28;96959;-78
2023/10/07 09:22:10;;;;;;;;;;;;;;;29.37;33.75;100928.00;10291083;28;96960;-78
2023/10/07 09:27:14;;;;;;;3.47;2.13;;;;;;;29.80;32.87;100928.66;10283372;28;96873;-77
2023/10/07 09:32:20;;;;;;;4.13;2.20;;;;;;;30.53;32.38;100937.69;10288731;28;97265;-78
2023/10/07 09:37:32;;;;;;;3.20;2.38;;;;;;;30.43;31.51;100933.44;10296448;28;96899;-79
2023/10/07 09:42:47;;;;;;;4.40;1.83;;;;;;;30.92;30.60;100932.38;10293885;28;97202;-82
2023/10/07 09:47:51;;;;;;;3.40;1.85;;;;;;;31.14;30.76;100931.59;10289325;28;96852;-81
2023/10/07 09:53:16;;;;;;;3.53;2.10;;;;;;;31.22;29.84;100921.53;10288310;28;96820;-80
2023/10/07 09:58:38;;;;;;;3.80;2.53;;;;;;;31.04;29.82;100914.66;10283450;28;96847;-81
2023/10/07 10:04:03;;;;;;;2.50;1.98;;;;;;;31.32;29.62;100922.19;10269061;28;96856;-80
2023/10/07 10:09:14;;;;;;;3.25;2.20;;;;;;;31.75;28.56;100911.75;10263059;28;96759;-79
2023/10/07 10:14:19;;;;;;;2.45;1.80;;;;;;;31.61;28.84;100915.25;10262953;28;98752;-79
2023/10/07 10:19:28;;;;;;;3.28;2.03;;;;;;;32.17;27.70;100910.22;10288836;28;96727;-81
2023/10/07 10:24:41;;;;;;;3.35;2.20;;;;;;;32.49;27.58;100906.41;10282980;28;96958;-80
2023/10/07 10:29:57;;;;;;;4.57;2.10;;;;;;;32.69;27.33;100901.25;10296660;28;96913;-80
2023/10/07 10:35:03;;;;;;;3.75;2.00;;;;;;;32.59;27.22;100897.94;10299890;28;96741;-80
2023/10/07 10:40:17;;;;;;;2.75;1.77;;;;;;;32.83;27.20;100903.97;10261486;28;96854;-80
2023/10/07 10:45:24;;;;;;;2.75;2.00;;;;;;;33.34;26.22;100889.38;10266016;28;96827;-80
2023/10/07 10:50:29;;;;;;;3.85;1.85;;;;;;;33.25;26.15;100881.47;10299469;28;96753;-80
2023/10/07 10:55:39;;;;;;;2.10;1.60;;;;;;;33.06;25.78;100888.38;10297891;28;97171;-80
2023/10/07 11:00:49;;;;;;;2.25;1.80;;;;;;;33.23;25.85;100878.94;10291718;28;96823;-80
2023/10/07 11:05:53;;;;;;;2.83;1.98;;;;;;;33.42;25.25;100875.63;10298832;28;96807;-80
2023/10/07 11:10:58;;;;;;;3.53;1.63;;;;;;;33.39;25.34;100872.41;10295450;28;96819;-80
2023/10/07 11:16:09;;;;;;;2.30;1.75;;;;;;;33.58;25.12;100876.44;10291946;28;96913;-81
2023/10/07 11:21:18;;;;;;;3.28;1.88;;;;;;;33.75;24.80;100886.06;10298430;28;96768;-81
2023/10/07 11:26:24;;;;;;;3.30;1.90;;;;;;;33.89;24.47;100875.06;10275126;28;96890;-81
2023/10/07 11:31:30;;;;;;;3.53;2.10;;;;;;;33.37;25.12;100866.28;10255426;28;97349;-80
2023/10/07 11:36:44;;;;;;;3.88;1.80;;;;;;;32.33;26.09;100861.09;10257728;28;96575;-80
2023/10/07 11:41:54;;;;;;;3.85;2.08;;;;;;;31.71;27.10;100858.69;10256144;28;97310;-80
2023/10/07 11:46:58;;;;;;;2.83;1.98;;;;;;;32.56;26.47;100849.25;10264829;28;96726;-80
2023/10/07 11:52:03;;;;;;;2.40;1.77;;;;;;;33.37;25.80;100845.31;10256932;28;97019;-79
2023/10/07 11:57:09;;;;;;;2.83;1.80;;;;;;;33.97;24.77;100841.34;10281512;28;96868;-80
2023/10/07 12:02:14;;;;;;;3.13;1.77;;;;;;;34.73;24.14;100841.28;10293334;28;96998;-76
2023/10/07 12:07:19;;;;;;;2.15;1.95;;;;;;;34.85;23.83;100834.19;10281086;28;96842;-76
2023/10/07 12:12:23;;;;;;;2.85;1.90;;;;;;;33.73;24.85;100819.91;10270404;28;96821;-76
2023/10/07 12:17:27;;;;;;;2.58;1.70;;;;;;;34.95;23.84;100811.97;10294585;28;96823;-76
2023/10/07 12:22:30;;;;;;;5.28;1.90;;;;;;;35.42;23.51;100795.47;10266836;28;96952;-76
2023/10/07 12:27:36;;;;;;;4.53;2.10;;;;;;;35.54;22.91;100797.41;10279194;28;97162;-80
2023/10/07 12:32:40;;;;;;;3.35;1.67;;;;;;;36.30;23.13;100792.34;10281633;28;96799;-79
2023/10/07 12:37:46;;;;;;;3.60;2.05;;;;;;;36.38;22.55;100770.19;10261432;28;98374;-77
2023/10/07 12:42:52;;;;;;;3.85;2.05;;;;;;;35.99;22.76;100773.00;10277604;28;96960;-78
2023/10/07 12:47:55;;;;;;;3.10;1.92;;;;;;;36.06;23.09;100763.72;10292971;28;96814;-77
2023/10/07 12:53:01;;;;;;;2.97;1.75;;;;;;;36.07;22.74;100762.66;10268931;28;96960;-78
2023/10/07 12:58:09;;;;;;;3.88;1.73;;;;;;;36.68;22.79;100755.78;10296582;28;98824;-78
2023/10/07 13:03:12;;;;;;;2.35;1.60;;;;;;;36.64;22.63;100753.66;10284338;28;96950;-81
2023/10/07 13:08:16;;;;;;;3.08;1.70;;;;;;;36.50;23.48;100750.13;10294094;28;97097;-81
2023/10/07 13:13:22;;;;;;;3.38;1.98;;;;;;;35.62;23.34;100738.84;10286007;28;97643;-80
2023/10/07 13:18:32;;;;;;;2.42;1.63;;;;;;;34.78;24.31;100744.94;10284981;28;96893;-82
2023/10/07 13:23:38;;;;;;;2.20;1.67;;;;;;;33.79;25.26;100753.56;10282307;28;96898;-81
2023/10/07 13:28:47;;;;;;;2.22;1.70;;;;;;;32.96;26.29;100737.84;10285712;28;98893;-79
2023/10/07 13:33:51;;;;;;;2.67;1.83;;;;;;;32.20;27.59;100737.44;10282439;28;97569;-81
2023/10/07 16:42:48;;;;;;;4.82;2.13;;;;;;;31.85;29.66;100642.84;10448420;27;96540;-88
2023/10/07 16:47:52;;;;;;;2.13;1.80;;;;;;;31.94;29.67;100639.03;10424521;27;98702;-82
2023/10/07 16:52:56;;;;;;;4.43;2.17;;;;;;;32.03;29.54;100637.88;10428575;27;96776;-82
2023/10/07 16:58:03;;;;;;;2.38;1.90;;;;;;;32.05;29.19;100636.66;10423736;27;96893;-80
2023/10/07 17:03:06;;;;;;;3.05;2.10;;;;;;;32.01;29.31;100643.53;10415689;27;97103;-84
2023/10/07 17:08:10;;;;;;;3.35;1.98;;;;;;;32.01;29.62;100648.13;10416361;27;97173;-83
2023/10/07 17:13:15;;;;;;;4.30;1.92;;;;;;;31.97;29.90;100646.81;10428958;27;96821;-82
2023/10/07 17:18:18;;;;;;;2.70;2.10;;;;;;;31.91;30.05;100645.66;10435271;27;97230;-84
2023/10/07 17:23:21;;;;;;;2.55;1.80;;;;;;;31.80;30.00;100646.16;10433786;27;96967;-82
2023/10/07 17:28:27;;;;;;;2.85;2.10;;;;;;;31.76;30.27;100650.25;10425678;27;96807;-81
2023/10/07 17:33:30;;;;;;;3.30;2.17;;;;;;;31.68;30.82;100650.34;10417284;27;96873;-84
2023/10/07 17:38:33;;;;;;;2.35;1.67;;;;;;;31.44;32.46;100664.19;10416156;27;96838;-78
2023/10/07 17:43:38;;;;;;;4.00;2.30;;;;;;;31.18;33.54;100664.53;10433957;27;96889;-75
2023/10/07 17:48:42;;;;;;;4.85;2.13;;;;;;;30.85;34.96;100674.00;10435982;27;97024;-75
2023/10/07 17:53:45;;;;;;;4.90;2.42;;;;;;;30.47;35.84;100677.59;10396372;27;96971;-74
2023/10/07 17:58:50;;;;;;;3.65;2.45;;;;;;;30.13;37.43;100688.78;10403256;28;100144;-73
2023/10/07 18:03:55;;;;;;;3.33;2.08;;;;;;;29.93;38.21;100689.31;10393361;28;97279;-76
2023/10/07 18:08:59;;;;;;;3.13;2.15;;;;;;;29.80;38.49;100697.13;10384717;28;98370;-76
2023/10/07 18:14:03;;;;;;;5.18;2.83;;;;;;;29.38;39.51;100704.63;10385556;28;96762;-77
2023/10/07 18:19:07;;;;;;;3.42;2.50;;;;;;;29.21;40.21;100705.66;10385434;28;96868;-76
2023/10/07 18:24:10;;;;;;;3.25;2.25;;;;;;;28.98;40.83;100713.59;10381117;28;96900;-75
2023/10/07 18:29:15;;;;;;;4.15;2.60;;;;;;;28.74;41.03;100719.75;10396462;28;97145;-76
2023/10/07 18:34:18;;;;;;;5.38;2.40;;;;;;;28.40;41.84;100720.84;10384793;28;96789;-75
2023/10/07 18:39:22;;;;;;;5.28;3.00;;;;;;;28.16;42.48;100726.97;10382255;28;96813;-75
2023/10/07 18:44:28;;;;;;;6.47;5.10;;;;;;;28.04;42.62;100741.78;10359040;28;96747;-76
2023/10/07 18:49:32;;;;;;;9.00;6.15;;;;;;;27.87;42.59;100734.59;10383974;28;96786;-76
2023/10/07 18:54:36;;;;;;;5.50;4.30;;;;;;;27.74;43.24;100743.13;10383855;28;96825;-75
2023/10/07 18:59:40;;;;;;;6.85;4.60;;;;;;;27.71;43.22;100743.44;10354658;28;96837;-76
2023/10/07 19:04:44;;;;;;;5.43;3.17;;;;;;;27.60;44.14;100745.50;10383280;28;97086;-75
2023/10/07 19:09:47;;;;;;;5.22;3.22;;;;;;;27.45;44.26;100747.06;10383703;28;96876;-76
2023/10/07 19:14:53;;;;;;;6.07;3.03;;;;;;;27.37;44.18;100750.56;10382156;28;96962;-76
2023/10/07 19:19:56;;;;;;;6.80;4.18;;;;;;;27.20;45.12;100753.28;10389003;28;96805;-76
2023/10/07 19:24:59;;;;;;;4.63;3.00;;;;;;;27.05;45.13;100762.91;10379191;27;97030;-78
2023/10/07 19:30:06;;;;;;;4.90;2.92;;;;;;;26.83;45.70;100758.78;10381454;28;96796;-76
2023/10/07 19:35:10;;;;;;;3.95;2.97;;;;;;;26.66;45.94;100763.13;10383009;28;97167;-75
2023/10/07 19:40:13;;;;;;;4.75;3.05;;;;;;;26.44;46.36;100770.75;10377921;28;97059;-76
2023/10/07 19:45:18;;;;;;;5.27;2.80;;;;;;;26.41;46.52;100781.88;10390105;28;97924;-78
2023/10/07 19:50:21;;;;;;;4.03;2.53;;;;;;;26.29;47.05;100783.88;10373422;28;96967;-78
2023/10/07 19:55:25;;;;;;;4.03;2.77;;;;;;;26.23;47.11;100792.56;10380743;28;96851;-78
2023/10/07 20:00:29;;;;;;;5.45;2.65;;;;;;;26.01;47.65;100797.44;10380354;28;97579;-78
2023/10/07 20:05:33;;;;;;;4.47;2.92;;;;;;;25.94;47.92;100799.88;10380437;28;97529;-78
2023/10/07 20:10:37;;;;;;;;;;;;;;;25.51;49.39;100804.88;10388728;28;96791;-79
2023/10/07 20:15:43;;;;;;;4.05;2.75;;;;;;;25.43;48.61;100802.03;10366041;28;98640;-77
2023/10/07 20:20:56;;;;;;;4.10;3.13;;;;;;;25.28;49.05;100808.81;10378521;28;96810;-77
2023/10/07 20:26:01;;;;;;;4.70;2.90;;;;;;;25.38;48.99;100812.41;10380252;28;96928;-77
2023/10/07 20:31:07;;;;;;;5.10;2.85;;;;;;;25.48;48.36;100824.03;10380603;28;97071;-77
2023/10/07 20:36:14;;;;;;;3.58;2.80;;;;;;;25.28;48.55;100816.91;10379502;28;96897;-77
2023/10/07 20:41:18;;;;;;;4.43;2.80;;;;;;;25.17;48.90;100815.22;10369849;28;98623;-78
2023/10/07 20:46:23;;;;;;;3.50;2.45;;;;;;;25.05;49.41;100826.25;10380242;28;96769;-77
2023/10/07 20:51:27;;;;;;;4.68;2.88;;;;;;;24.88;50.09;100835.78;10364696;28;96898;-77
2023/10/07 20:56:30;;;;;;;4.32;2.88;;;;;;;24.81;50.19;100840.03;10377846;28;96797;-77
2023/10/07 21:01:36;;;;;;;3.85;2.55;;;;;;;24.71;50.68;100834.63;10375627;28;96823;-77
2023/10/07 21:06:39;;;;;;;4.65;2.95;;;;;;;24.53;51.44;100830.03;10378039;28;96808;-77
2023/10/07 21:11:43;;;;;;;6.22;3.55;;;;;;;24.50;51.56;100841.03;10371092;28;98423;-78
2023/10/07 21:16:48;;;;;;;5.25;3.13;;;;;;;24.38;51.73;100834.91;10375214;28;97759;-79
2023/10/07 21:21:52;;;;;;;4.05;3.03;;;;;;;24.35;51.76;100834.31;10371725;28;97064;-76
2023/10/07 21:26:58;;;;;;;4.80;2.90;;;;;;;24.18;52.08;100837.59;10376458;28;97217;-76
2023/10/07 21:32:03;;;;;;;4.38;2.75;;;;;;;24.12;52.36;100835.41;10380274;28;98036;-76
2023/10/07 21:37:07;;;;;;;6.00;3.22;;;;;;;23.90;53.46;100831.06;10384716;28;96798;-76
2023/10/07 21:42:10;;;;;;;3.83;3.00;;;;;;;23.60;54.89;100842.56;10384254;28;99215;-76
2023/10/07 21:47:15;;;;;;;5.43;3.33;;;;;;;23.36;56.13;100831.16;10377934;28;96835;-76
2023/10/07 21:52:18;;;;;;;4.00;2.97;;;;;;;23.21;56.37;100835.13;10384845;28;99079;-76
2023/10/07 21:57:21;;;;;;;4.47;3.10;;;;;;;23.35;55.42;100842.03;10382059;28;97210;-77
2023/10/07 22:02:26;;;;;;;4.33;2.57;;;;;;;23.52;54.21;100836.97;10384758;28;97035;-76
2023/10/07 22:07:30;;;;;;;4.07;2.80;;;;;;;23.37;54.75;100842.75;10383551;28;96910;-76
2023/10/07 22:12:33;;;;;;;3.72;2.90;;;;;;;23.28;54.59;100840.81;10383978;28;97466;-76
2023/10/07 22:17:38;;;;;;;3.83;2.72;;;;;;;23.45;53.70;100851.03;10380842;28;97214;-76
2023/10/07 22:22:43;;;;;;;4.72;2.80;;;;;;;23.50;53.17;100846.97;10381198;28;96798;-76
2023/10/07 22:27:47;;;;;;;4.15;2.35;;;;;;;23.19;53.79;100839.75;10383860;28;97146;-76
2023/10/07 22:32:58;;;;;;;4.40;2.67;;;;;;;22.90;54.98;100829.69;10381398;28;97085;-76
2023/10/07 22:38:08;;;;;;;6.20;2.97;;;;;;;22.99;54.85;100839.69;10364668;28;98978;-77
2023/10/07 22:43:16;;;;;;;4.40;2.60;;;;;;;22.98;54.16;100835.28;10382084;28;96868;-77
2023/10/07 22:48:27;;;;;;;3.80;2.55;;;;;;;23.12;52.83;100838.56;10383323;28;96947;-77
2023/10/07 22:53:35;;;;;;;5.07;2.38;;;;;;;22.86;53.93;100837.16;10377724;28;97248;-76
2023/10/07 22:58:38;;;;;;;3.67;2.67;;;;;;;22.83;54.56;100836.53;10380152;28;96779;-76
2023/10/07 23:03:49;;;;;;;4.73;2.93;;;;;;;22.56;55.67;100840.44;10380833;28;97024;-77
2023/10/07 23:08:59;;;;;;;5.40;2.83;;;;;;;22.65;54.95;100838.84;10379197;28;98211;-76
2023/10/07 23:14:06;;;;;;;4.65;2.60;;;;;;;22.92;53.56;100833.13;10380528;28;96876;-76
2023/10/07 23:19:16;;;;;;;3.33;2.50;;;;;;;23.07;52.82;100829.16;10379040;28;99072;-77
2023/10/07 23:29:48;;;;;;;3.58;2.78;;;;;;;22.98;52.66;100837.97;10370645;28;96790;-76
2023/10/07 23:34:59;;;;;;;3.33;2.30;;;;;;;23.33;51.18;100825.19;10373285;28;98811;-76
2023/10/07 23:40:12;;;;;;;3.80;2.42;;;;;;;23.39;50.93;100830.06;10366759;28;96891;-76
2023/10/07 23:45:19;;;;;;;3.65;2.47;;;;;;;23.18;52.23;100835.34;10374899;28;96884;-76
2023/10/07 23:50:28;;;;;;;3.83;2.80;;;;;;;22.94;53.14;100836.53;10364975;28;97321;-76
2023/10/07 23:55:33;;;;;;;3.65;2.83;;;;;;;22.96;52.41;100839.91;10361456;28;98649;-76
